Time;durP1;ratioP1;P1;durP2;ratioP2;P2;SDS_P1;SDS_P2;PMS_P1;PMS_P2;Temp;Humidity;BMP_temperature;BMP_pressure;BME280_temperature;BME280_humidity;BME280_pressure;Samples;Min_cycle;Max_cycle;Signal;HPM_P1;HPM_P2
2022/01/14 00:00:44;;;;;;;;;79.50;62.50;;;;;4.13;69.84;103483.63;6243362;22;46272;-85
2022/01/14 00:03:13;;;;;;;;;76.50;59.00;;;;;4.10;69.68;103470.38;6241485;22;45221;-85
2022/01/14 00:05:41;;;;;;;;;68.75;56.75;;;;;4.29;69.78;103513.31;6246132;22;45436;-87
2022/01/14 00:08:07;;;;;;;;;75.50;56.00;;;;;4.27;69.83;103509.69;6247283;22;45340;-84
2022/01/14 00:10:47;;;;;;;;;68.25;54.00;;;;;4.06;69.99;103473.56;6218870;22;47172;-83
2022/01/14 00:13:50;;;;;;;;;67.00;54.50;;;;;4.12;69.88;103483.53;6245719;22;45787;-83
2022/01/14 00:16:19;;;;;;;;;65.50;53.50;;;;;4.16;69.83;103491.63;6219003;22;45510;-83
2022/01/14 00:18:58;;;;;;;;;70.75;55.75;;;;;4.00;70.35;103472.28;6248909;22;45543;-83
2022/01/14 00:21:32;;;;;;;;;69.00;53.25;;;;;4.16;70.22;103501.16;6249624;22;47258;-83
2022/01/14 00:32:57;;;;;;;;;68.50;53.75;;;;;3.83;70.09;103463.31;6249830;22;45819;-84
2022/01/14 00:35:27;;;;;;;;;76.75;56.25;;;;;3.93;70.62;103486.59;6227940;22;45058;-83
2022/01/14 00:38:02;;;;;;;;;68.75;56.50;;;;;4.01;70.08;103498.44;6255768;22;45355;-83
2022/01/14 00:40:37;;;;;;;;;66.50;52.50;;;;;3.84;70.40;103463.41;6257158;22;44769;-82
2022/01/14 00:43:06;;;;;;;;;70.50;55.50;;;;;4.01;70.49;103484.50;6228348;22;47875;-82
2022/01/14 00:45:35;;;;;;;;;69.00;56.25;;;;;4.01;70.22;103485.41;6225628;22;45372;-81
2022/01/14 00:48:04;;;;;;;;;69.75;55.50;;;;;3.92;70.41;103466.53;6228526;22;45517;-82
2022/01/14 00:50:41;;;;;;;;;72.00;55.75;;;;;3.86;70.24;103451.41;6227931;22;45368;-81
2022/01/14 01:26:06;;;;;;;;;;;;;;;;;;;;;
2022/01/14 01:40:22;;;;;;;;;;;;;;;;;;;;;
2022/01/14 01:50:18;;;;;;;;;63.75;49.25;;;;;3.54;70.11;103439.69;6089187;23;45444;-88
2022/01/14 01:53:48;;;;;;;;;;;;;;;;;;;;;
2022/01/14 01:56:50;;;;;;;;;;;;;;;;;;;;;
2022/01/14 02:02:27;;;;;;;;;;;;;;;;;;;;;
2022/01/14 02:09:07;;;;;;;;;64.25;52.00;;;;;3.76;70.64;103459.38;6156062;23;45223;-89
2022/01/14 02:12:20;;;;;;;;;67.25;56.00;;;;;3.73;70.51;103453.97;6166508;22;45315;-89
2022/01/14 02:28:20;;;;;;;;;;;;;;;;;;;;;
2022/01/14 02:31:05;;;;;;;;;;;;;;;;;;;;;
2022/01/14 02:34:10;;;;;;;;;;;;;;;;;;;;;
2022/01/14 02:37:19;;;;;;;;;;;;;;;;;;;;;
2022/01/14 02:39:50;;;;;;;;;;;;;;;;;;;;;
2022/01/14 02:43:02;;;;;;;;;;;;;;;;;;;;;
2022/01/14 03:39:01;;;;;;;;;;;;;;;;;;;;;
2022/01/14 04:21:26;;;;;;;;;61.25;48.75;;;;;3.37;70.89;103364.75;5836979;24;45481;-87
2022/01/14 04:35:10;;;;;;;;;;;;;;;;;;;;;
2022/01/14 04:42:14;;;;;;;;;;;;;;;;;;;;;
2022/01/14 05:57:56;;;;;;;;;;;;;;;;;;;;;
2022/01/14 06:00:25;;;;;;;;;66.25;52.25;;;;;3.45;70.67;103354.84;6013837;23;44851;-87
2022/01/14 06:02:51;;;;;;;;;66.75;51.75;;;;;3.43;71.12;103357.34;6068067;23;45312;-83
2022/01/14 06:05:40;;;;;;;;;62.75;50.50;;;;;3.35;70.89;103332.47;6069386;23;46232;-82
2022/01/14 06:08:11;;;;;;;;;69.00;51.75;;;;;3.32;70.98;103324.47;6249578;22;44855;-83
2022/01/14 06:10:39;;;;;;;;;65.75;52.25;;;;;3.43;70.42;103344.31;6248970;22;45296;-82
2022/01/14 06:13:07;;;;;;;;;68.50;55.00;;;;;3.31;70.59;103330.44;6248086;22;45169;-82
2022/01/14 06:15:40;;;;;;;;;66.25;51.75;;;;;3.35;70.67;103347.19;6220536;22;47956;-82
2022/01/14 06:18:10;;;;;;;;;63.75;49.25;;;;;3.40;70.50;103359.72;6248101;22;45239;-81
2022/01/14 06:20:46;;;;;;;;;66.75;53.00;;;;;3.21;70.88;103321.13;6220261;22;45296;-82
2022/01/14 06:23:16;;;;;;;;;69.50;51.50;;;;;3.22;70.73;103314.22;6247783;22;45204;-83
2022/01/14 06:25:52;;;;;;;;;66.75;52.75;;;;;3.21;70.40;103330.66;6219692;22;47277;-82
2022/01/14 06:28:28;;;;;;;;;71.00;55.50;;;;;3.26;70.66;103342.25;6220333;22;45433;-82
2022/01/14 06:31:01;;;;;;;;;66.75;51.25;;;;;3.22;70.69;103333.34;6244959;22;45323;-83
2022/01/14 06:33:27;;;;;;;;;73.25;58.25;;;;;3.19;70.65;103316.63;6247528;22;45402;-83
2022/01/14 06:35:52;;;;;;;;;71.00;55.25;;;;;3.32;70.41;103350.50;6239360;22;47931;-82
2022/01/14 06:38:30;;;;;;;;;66.75;53.25;;;;;3.28;70.23;103344.16;6247522;22;45291;-83
2022/01/14 06:40:59;;;;;;;;;61.25;49.00;;;;;3.31;70.54;103348.66;6220078;22;45134;-85
2022/01/14 06:43:32;;;;;;;;;67.75;52.75;;;;;3.14;70.96;103315.41;6220504;22;45344;-87
2022/01/14 06:46:03;;;;;;;;;65.50;52.75;;;;;3.19;70.47;103322.72;6249648;22;46619;-86
2022/01/14 06:48:41;;;;;;;;;;;;;;;;;;;;;
2022/01/14 06:51:43;;;;;;;;;;;;;;;;;;;;;
2022/01/14 06:54:32;;;;;;;;;59.75;44.00;;;;;3.24;70.38;103313.53;6247313;22;72050;-87
2022/01/14 06:57:35;;;;;;;;;60.75;50.75;;;;;3.33;70.66;103330.56;6246417;22;45575;-86
2022/01/14 07:00:14;;;;;;;;;;;;;;;;;;;;;
2022/01/14 07:02:45;;;;;;;;;56.50;48.00;;;;;3.33;70.95;103330.56;6248977;22;67748;-88
2022/01/14 07:05:25;;;;;;;;;62.25;47.75;;;;;3.30;70.89;103313.94;6222129;22;45412;-88
2022/01/14 07:08:08;;;;;;;;;;;;;;;;;;;;;
2022/01/14 07:10:36;;;;;;;;;53.75;44.75;;;;;3.37;70.58;103329.97;6247370;22;71174;-88
2022/01/14 07:13:06;;;;;;;;;60.25;46.50;;;;;3.30;70.76;103313.03;6220212;22;45284;-86
2022/01/14 07:15:50;;;;;;;;;59.50;46.25;;;;;3.28;70.77;103304.22;6245384;22;45201;-85
2022/01/14 07:18:18;;;;;;;;;52.50;45.00;;;;;3.42;70.46;103323.38;6247719;22;45392;-85
2022/01/14 07:20:50;;;;;;;;;59.50;46.00;;;;;3.33;70.78;103296.72;6219518;22;45131;-85
2022/01/14 07:23:25;;;;;;;;;60.00;44.25;;;;;3.37;70.53;103307.47;6247728;22;45318;-85
2022/01/14 07:25:53;;;;;;;;;53.25;44.50;;;;;3.27;70.79;103300.72;6219590;22;45796;-84
2022/01/14 07:28:30;;;;;;;;;52.75;44.00;;;;;3.46;70.58;103323.69;6247256;22;45312;-85
2022/01/14 07:30:58;;;;;;;;;59.25;46.50;;;;;3.51;70.74;103332.69;6263113;22;45371;-84
2022/01/14 07:33:25;;;;;;;;;52.25;44.75;;;;;3.49;70.88;103333.41;6278626;22;45350;-85
2022/01/14 07:35:56;;;;;;;;;55.50;44.25;;;;;3.41;70.70;103317.25;6247482;22;45494;-85
2022/01/14 07:38:27;;;;;;;;;51.75;43.75;;;;;3.49;70.83;103330.78;6278596;22;45531;-85
2022/01/14 07:40:59;;;;;;;;;60.50;49.75;;;;;3.41;71.09;103321.56;6250256;22;45135;-85
2022/01/14 07:43:29;;;;;;;;;53.50;42.75;;;;;3.45;70.97;103326.19;6278432;22;45436;-84
2022/01/14 07:45:55;;;;;;;;;52.00;44.00;;;;;3.45;70.62;103318.38;6275877;22;46154;-84
2022/01/14 07:48:39;;;;;;;;;64.75;51.25;;;;;3.45;70.86;103327.09;6275452;22;46719;-84
2022/01/14 07:51:12;;;;;;;;;59.00;47.50;;;;;3.53;70.86;103348.44;6278202;22;45173;-84
2022/01/14 07:53:46;;;;;;;;;60.50;50.50;;;;;3.48;71.11;103331.59;6249941;22;45194;-85
2022/01/14 07:56:21;;;;;;;;;64.00;51.75;;;;;3.48;71.04;103331.59;6249726;22;45185;-84
2022/01/14 07:59:04;;;;;;;;;62.75;50.75;;;;;3.45;70.56;103331.41;6274894;22;47588;-85
2022/01/14 08:01:47;;;;;;;;;57.50;46.50;;;;;3.51;70.71;103345.72;6250336;22;47015;-84
2022/01/14 08:04:17;;;;;;;;;61.25;47.50;;;;;3.46;70.54;103338.41;6279911;22;45339;-84
2022/01/14 08:06:48;;;;;;;;;64.50;51.25;;;;;3.52;71.39;103346.63;6251222;22;45401;-84
2022/01/14 08:09:23;;;;;;;;;60.50;49.75;;;;;3.58;71.38;103352.22;6253164;22;47168;-83
2022/01/14 08:11:53;;;;;;;;;59.50;49.00;;;;;3.43;71.03;103318.28;6253906;22;45404;-83
2022/01/14 08:14:21;;;;;;;;;62.75;47.00;;;;;3.48;70.92;103326.41;6283575;22;45181;-83
2022/01/14 08:16:50;;;;;;;;;63.75;51.00;;;;;3.67;70.76;103360.69;6253748;22;45355;-83
2022/01/14 08:19:21;;;;;;;;;59.50;49.50;;;;;3.61;70.84;103343.72;6252954;22;47835;-83
2022/01/14 08:21:51;;;;;;;;;62.75;50.25;;;;;3.72;70.41;103359.28;6254840;22;45822;-83
2022/01/14 08:24:24;;;;;;;;;62.25;51.00;;;;;3.74;70.81;103362.91;6256840;22;44925;-83
2022/01/14 08:27:02;;;;;;;;;63.75;49.00;;;;;3.59;70.60;103329.72;6254534;22;45224;-83
2022/01/14 08:29:40;;;;;;;;;67.00;55.00;;;;;3.63;70.62;103342.13;6278006;22;47998;-87
2022/01/14 08:32:05;;;;;;;;;64.00;52.75;;;;;3.64;71.00;103339.63;6282874;22;45168;-86
2022/01/14 08:34:50;;;;;;;;;69.50;54.50;;;;;3.82;71.19;103365.09;6251136;22;45381;-87
2022/01/14 08:41:58;;;;;;;;;;;;;;;;;;;;;
2022/01/14 08:49:13;;;;;;;;;;;;;;;;;;;;;
2022/01/14 08:51:43;;;;;;;;;67.50;51.50;;;;;3.83;70.79;103352.19;6240278;22;45277;-86
2022/01/14 08:58:11;;;;;;;;;;;;;;;;;;;;;
2022/01/14 09:00:40;;;;;;;;;67.00;55.00;;;;;4.03;71.36;103355.19;6277776;22;67969;-84
2022/01/14 09:03:25;;;;;;;;;67.25;54.75;;;;;3.94;71.33;103330.31;6278037;22;45160;-84
2022/01/14 09:05:50;;;;;;;;;69.25;53.00;;;;;4.03;70.91;103329.13;6250646;22;46304;-86
2022/01/14 09:08:26;;;;;;;;;64.50;51.25;;;;;4.09;70.94;103324.28;6279248;22;45475;-86
2022/01/14 09:11:08;;;;;;;;;69.50;55.00;;;;;4.23;70.97;103343.44;6279296;22;45286;-86
2022/01/14 09:13:36;;;;;;;;;66.00;52.25;;;;;4.22;70.45;103328.59;6279571;22;45186;-87
2022/01/14 09:16:05;;;;;;;;;67.50;52.25;;;;;4.39;70.83;103354.94;6277435;22;48285;-86
2022/01/14 09:19:02;;;;;;;;;;;;;;;;;;;;;
2022/01/14 09:25:01;;;;;;;;;;;;;;;;;;;;;
2022/01/14 09:27:58;;;;;;;;;;;;;;;;;;;;;
2022/01/14 09:30:45;;;;;;;;;68.75;57.50;;;;;4.48;70.56;103306.78;6277631;22;72872;-85
2022/01/14 09:33:18;;;;;;;;;67.25;54.75;;;;;4.67;70.48;103335.81;6281998;22;45165;-85
2022/01/14 09:35:45;;;;;;;;;69.25;53.00;;;;;4.68;70.54;103336.69;6280050;22;45218;-84
2022/01/14 09:38:50;;;;;;;;;;;;;;;;;;;;;
2022/01/14 09:41:25;;;;;;;;;61.25;50.50;;;;;4.78;70.73;103337.38;6277115;22;73319;-86
2022/01/14 09:44:45;;;;;;;;;62.00;51.75;;;;;4.90;70.76;103349.41;6248138;22;45531;-86
2022/01/14 09:47:47;;;;;;;;;;;;;;;;;;;;;
2022/01/14 09:50:56;;;;;;;;;68.25;52.50;;;;;4.81;70.57;103311.50;6275271;22;74961;-87
2022/01/14 09:53:41;;;;;;;;;69.00;50.00;;;;;5.04;70.57;103331.16;6280708;22;45452;-89
2022/01/14 09:57:04;;;;;;;;;78.75;58.00;;;;;5.01;70.41;103323.13;6277352;22;45401;-89
2022/01/14 10:26:30;;;;;;;;;;;;;;;;;;;;;
2022/01/14 10:33:58;;;;;;;;;55.00;44.75;;;;;6.63;67.87;103359.50;5813467;24;46215;-86
2022/01/14 10:39:53;;;;;;;;;;;;;;;;;;;;;
2022/01/14 10:42:36;;;;;;;;;52.75;42.50;;;;;6.92;66.82;103324.38;6138047;23;71133;-88
2022/01/14 10:45:21;;;;;;;;;57.00;46.00;;;;;7.13;66.82;103332.47;6124638;23;47029;-84
2022/01/14 10:48:51;;;;;;;;;57.25;45.50;;;;;7.19;66.70;103305.69;6152684;23;45471;-84
2022/01/14 10:55:18;;;;;;;;;;;;;;;;;;;;;
2022/01/14 10:58:04;;;;;;;;;54.50;44.00;;;;;7.81;65.27;103322.81;6267608;22;74553;-84
2022/01/14 11:49:15;;;;;;;;;;;;;;;;;;;;;
2022/01/14 11:59:31;;;;;;;;;;;;;;;;;;;;;
2022/01/14 12:10:09;;;;;;;;;;;;;;;;;;;;;
2022/01/14 12:13:18;;;;;;;;;;;;;;;;;;;;;
2022/01/14 12:19:26;;;;;;;;;61.75;50.00;;;;;14.68;51.92;103189.88;6013858;23;45989;-84
2022/01/14 12:22:14;;;;;;;;;;;;;;;;;;;;;
2022/01/14 12:24:51;;;;;;;;;56.00;44.25;;;;;15.31;49.93;103167.06;6279270;22;68718;-85
2022/01/14 12:50:11;;;;;;;;;;;;;;;;;;;;;
2022/01/14 13:24:27;;;;;;;;;;;;;;;;;;;;;
2022/01/14 13:44:00;;;;;;;;;46.25;37.25;;;;;19.29;38.02;103074.81;6038075;23;45105;-82
2022/01/14 13:46:38;;;;;;;;;52.25;43.00;;;;;19.33;37.68;103068.59;6129771;22;45632;-84
2022/01/14 13:49:20;;;;;;;;;47.75;40.25;;;;;19.45;37.08;103056.97;6254806;22;45178;-84
2022/01/14 13:52:02;;;;;;;;;51.25;42.25;;;;;19.60;36.54;103064.94;6248567;22;45173;-83
2022/01/14 13:54:54;;;;;;;;;48.25;40.00;;;;;19.67;36.54;103061.34;6271916;22;45256;-83
2022/01/14 13:57:26;;;;;;;;;54.00;43.25;;;;;19.73;36.44;103055.13;6245150;22;45238;-85
2022/01/14 14:00:04;;;;;;;;;51.25;41.25;;;;;19.79;36.23;103047.06;6245528;22;45612;-83
2022/01/14 14:02:36;;;;;;;;;51.50;42.50;;;;;19.85;35.72;103054.16;6246628;22;45350;-83
2022/01/14 14:05:07;;;;;;;;;48.75;39.25;;;;;19.85;35.64;103052.38;6245310;22;45337;-83
2022/01/14 14:07:45;;;;;;;;;45.75;38.75;;;;;19.98;35.17;103058.53;6244414;22;45193;-83
2022/01/14 14:10:31;;;;;;;;;51.75;41.75;;;;;20.10;35.51;103044.19;6243318;22;45382;-83
2022/01/14 14:13:28;;;;;;;;;49.00;41.00;;;;;20.24;35.42;103045.88;6244670;22;45530;-84
2022/01/14 14:15:51;;;;;;;;;50.00;40.00;;;;;20.30;35.16;103031.56;6245797;22;45463;-84
2022/01/14 14:18:47;;;;;;;;;52.00;41.75;;;;;20.44;34.90;103048.41;6244757;22;45701;-83
2022/01/14 14:21:29;;;;;;;;;51.75;42.25;;;;;20.50;34.95;103039.44;6244468;22;48069;-83
2022/01/14 14:24:04;;;;;;;;;52.75;44.00;;;;;20.69;34.94;103048.25;6243934;22;45287;-83
2022/01/14 14:26:35;;;;;;;;;48.50;40.75;;;;;20.79;34.44;103041.00;6241900;22;45603;-83
2022/01/14 14:29:28;;;;;;;;;52.75;44.25;;;;;20.91;34.83;103031.06;6244478;22;45390;-83
2022/01/14 14:31:57;;;;;;;;;45.50;37.75;;;;;20.96;34.03;103025.66;6245749;22;45416;-83
2022/01/14 14:34:34;;;;;;;;;49.50;40.50;;;;;20.89;34.10;103023.94;6245927;22;45351;-83
2022/01/14 14:37:08;;;;;;;;;50.00;41.25;;;;;20.82;33.69;103023.13;6244392;22;45243;-84
2022/01/14 14:39:47;;;;;;;;;48.50;38.00;;;;;20.80;33.80;103010.66;6245887;22;45453;-84
2022/01/14 14:42:18;;;;;;;;;49.25;39.75;;;;;20.89;33.52;103010.56;6242754;22;46870;-84
2022/01/14 14:44:49;;;;;;;;;49.75;40.00;;;;;20.95;33.16;103002.44;6243020;22;45616;-85
2022/01/14 14:47:46;;;;;;;;;47.00;38.50;;;;;21.11;33.01;103011.19;6246682;22;45389;-83
2022/01/14 14:51:29;;;;;;;;;;;;;;;;;;;;;
2022/01/14 14:54:11;;;;;;;;;47.25;40.00;;;;;20.77;33.17;102992.84;6244315;22;75684;-85
2022/01/14 15:03:54;;;;;;;;;47.50;38.50;;;;;18.93;33.26;103001.94;6237809;22;45444;-85
2022/01/14 15:07:06;;;;;;;;;;;;;;;;;;;;;
2022/01/14 15:10:06;;;;;;;;;;;;;;;;;;;;;
2022/01/14 15:19:44;;;;;;;;;;;;;;;;;;;;;
2022/01/14 15:23:09;;;;;;;;;;;;;;;;;;;;;
2022/01/14 15:41:49;;;;;;;;;;;;;;;;;;;;;
2022/01/14 15:48:45;;;;;;;;;40.50;36.75;;;;;13.30;40.51;102978.75;5903537;24;45464;-84
2022/01/14 17:37:35;;;;;;;;;;;;;;;;;;;;;
2022/01/14 17:44:19;;;;;;;;;65.50;53.25;;;;;9.46;50.41;102996.53;6073864;23;45284;-89
2022/01/14 17:47:20;;;;;;;;;68.50;51.25;;;;;9.23;50.00;102963.22;6051290;23;45455;-85
2022/01/14 17:50:17;;;;;;;;;;;;;;;;;;;;;
2022/01/14 17:56:53;;;;;;;;;71.00;57.25;;;;;9.14;51.12;102992.69;6158863;23;45871;-87
2022/01/14 18:07:05;;;;;;;;;83.75;65.75;;;;;8.96;52.06;103000.75;6069187;23;45172;-87
2022/01/14 18:24:44;;;;;;;;;;;;;;;;;;;;;
2022/01/14 18:31:02;;;;;;;;;;;;;;;;;;;;;
2022/01/14 18:33:42;;;;;;;;;76.50;60.00;;;;;8.52;54.17;102986.72;6104788;23;73292;-85
2022/01/14 18:36:30;;;;;;;;;75.00;57.25;;;;;8.52;54.41;102981.44;6234446;22;45430;-86
2022/01/14 18:38:57;;;;;;;;;77.50;61.25;;;;;8.45;54.28;102968.94;6244111;22;45789;-82
2022/01/14 18:41:39;;;;;;;;;80.50;62.75;;;;;8.36;54.54;102952.75;6245000;22;45237;-85
2022/01/14 18:44:22;;;;;;;;;82.50;62.25;;;;;8.49;54.84;102975.19;6246340;22;45327;-84
2022/01/14 18:46:58;;;;;;;;;79.50;61.75;;;;;8.32;54.61;102945.59;6244406;22;47097;-84
2022/01/14 18:49:54;;;;;;;;;;;;;;;;;;;;;
2022/01/14 18:52:27;;;;;;;;;82.50;61.25;;;;;8.43;54.97;102967.09;6236193;22;68370;-85
2022/01/14 18:55:01;;;;;;;;;82.75;63.00;;;;;8.35;55.21;102944.00;6244409;22;45473;-87
2022/01/14 18:57:30;;;;;;;;;78.00;58.50;;;;;8.42;55.24;102952.16;6270586;22;46774;-85
2022/01/14 19:00:11;;;;;;;;;76.25;59.50;;;;;8.33;55.44;102943.03;6244449;22;45442;-85
2022/01/14 19:05:45;;;;;;;;;80.00;59.75;;;;;8.43;55.35;102957.47;6198829;22;45472;-85
2022/01/14 19:08:12;;;;;;;;;79.50;63.50;;;;;8.26;55.30;102935.75;6244842;22;47187;-85
2022/01/14 19:10:47;;;;;;;;;85.25;68.75;;;;;8.38;55.70;102954.63;6243863;22;45385;-84
2022/01/14 19:14:04;;;;;;;;;79.75;61.75;;;;;8.27;55.34;102941.91;6246259;22;45242;-85
2022/01/14 19:16:48;;;;;;;;;83.50;66.00;;;;;8.16;55.97;102930.97;6247534;22;45154;-85
2022/01/14 19:19:21;;;;;;;;;89.50;72.25;;;;;8.29;56.02;102956.88;6244532;22;47639;-85
2022/01/14 19:21:59;;;;;;;;;89.75;74.25;;;;;8.15;55.91;102940.56;6244485;22;45402;-85
2022/01/14 19:24:25;;;;;;;;;90.25;73.75;;;;;8.27;56.33;102962.88;6246797;22;45246;-85
2022/01/14 19:26:56;;;;;;;;;88.75;72.75;;;;;8.11;56.37;102930.75;6246596;22;45480;-84
2022/01/14 19:29:47;;;;;;;;;94.33;83.33;;;;;8.11;56.30;102929.88;6249593;22;46495;-84
2022/01/14 19:32:31;;;;;;;;;91.33;79.67;;;;;8.14;56.55;102937.88;6242909;22;45245;-85
2022/01/14 19:35:04;;;;;;;;;94.33;84.00;;;;;7.98;56.38;102907.47;6245724;22;45478;-85
2022/01/14 19:37:31;;;;;;;;;96.00;84.67;;;;;8.08;56.52;102928.00;6247533;22;45185;-85
2022/01/14 19:40:03;;;;;;;;;96.33;82.33;;;;;7.93;56.56;102902.03;6249939;22;45203;-86
2022/01/14 19:42:39;;;;;;;;;92.33;79.67;;;;;7.94;56.71;102906.47;6249232;22;45298;-84
2022/01/14 19:45:15;;;;;;;;;93.00;78.50;;;;;7.96;56.74;102898.63;6246017;22;45266;-85
2022/01/14 19:47:55;;;;;;;;;86.50;73.75;;;;;7.95;56.96;102913.47;6246704;22;45707;-84
2022/01/14 19:50:34;;;;;;;;;;;;;;;;;;;;;
2022/01/14 19:53:14;;;;;;;;;86.00;69.25;;;;;7.93;56.73;102917.75;6246308;22;72148;-84
2022/01/14 19:55:41;;;;;;;;;88.50;68.25;;;;;7.82;57.09;102891.94;6247254;22;45415;-85
2022/01/14 19:58:09;;;;;;;;;86.25;73.25;;;;;7.82;57.16;102892.81;6247102;22;45285;-84
2022/01/14 20:00:58;;;;;;;;;84.75;65.50;;;;;7.78;57.31;102882.13;6248392;22;47253;-84
2022/01/14 20:03:38;;;;;;;;;85.25;69.75;;;;;7.84;57.54;102887.66;6244961;22;45375;-84
2022/01/14 20:06:13;;;;;;;;;85.50;68.50;;;;;7.89;57.58;102908.00;6244685;22;45204;-84
2022/01/14 20:08:46;;;;;;;;;87.50;71.75;;;;;7.71;57.51;102878.38;6246213;22;45532;-85
2022/01/14 20:11:31;;;;;;;;;88.75;73.50;;;;;7.70;57.72;102887.06;6243316;22;48120;-85
2022/01/14 20:14:02;;;;;;;;;85.25;68.25;;;;;7.71;57.72;102888.84;6244506;22;45444;-85
2022/01/14 20:16:39;;;;;;;;;86.50;72.00;;;;;7.67;58.15;102872.09;6244811;22;45418;-85
2022/01/14 20:19:37;;;;;;;;;85.75;68.50;;;;;7.73;57.93;102887.19;6242957;22;45405;-85
2022/01/14 20:22:08;;;;;;;;;86.50;71.00;;;;;7.78;58.17;102898.78;6245996;22;46125;-86
2022/01/14 20:24:46;;;;;;;;;87.25;68.25;;;;;7.76;58.37;102899.53;6245085;22;45772;-86
2022/01/14 20:27:14;;;;;;;;;84.75;68.50;;;;;7.57;58.09;102861.16;6243098;22;45429;-86
2022/01/14 20:30:04;;;;;;;;;;;;;;;;;;;;;
2022/01/14 20:32:37;;;;;;;;;84.75;64.00;;;;;7.74;58.57;102895.09;6244540;22;74404;-85
2022/01/14 20:35:29;;;;;;;;;83.00;64.50;;;;;7.67;58.59;102881.66;6242385;22;45239;-85
2022/01/14 20:38:08;;;;;;;;;;;;;;;;;;;;;
2022/01/14 20:40:42;;;;;;;;;82.50;66.50;;;;;7.64;58.31;102882.44;6244645;22;72834;-85
2022/01/14 20:43:14;;;;;;;;;87.00;71.75;;;;;7.64;58.40;102889.41;6244366;22;47166;-85
2022/01/14 20:45:46;;;;;;;;;81.25;63.00;;;;;7.66;58.64;102896.50;6244736;22;45232;-84
2022/01/14 20:48:14;;;;;;;;;78.75;61.75;;;;;7.46;58.74;102863.31;6253205;22;45335;-85
2022/01/14 20:51:03;;;;;;;;;77.75;59.75;;;;;7.49;58.79;102869.59;6245219;22;45424;-85
2022/01/14 20:53:38;;;;;;;;;80.00;61.25;;;;;7.58;58.93;102886.53;6243509;22;47802;-85
2022/01/14 20:56:23;;;;;;;;;80.75;60.50;;;;;7.46;58.90;102868.56;6244829;22;45432;-85
2022/01/14 20:58:56;;;;;;;;;83.25;65.25;;;;;7.39;59.35;102862.16;6245171;22;45753;-85
2022/01/14 21:01:22;;;;;;;;;86.50;69.25;;;;;7.43;58.85;102874.56;6243213;22;45439;-86
2022/01/14 21:03:50;;;;;;;;;84.75;66.25;;;;;7.45;59.01;102862.41;6245402;22;45445;-85
2022/01/14 21:06:19;;;;;;;;;86.00;65.50;;;;;7.43;58.54;102861.47;6243786;22;45358;-85
2022/01/14 21:09:00;;;;;;;;;;;;;;;;;;;;;
2022/01/14 21:11:36;;;;;;;;;83.25;64.25;;;;;7.24;58.52;102835.28;6244583;22;73342;-85
2022/01/14 21:14:23;;;;;;;;;79.75;63.25;;;;;7.40;58.68;102853.44;6245382;22;47313;-85
2022/01/14 21:16:56;;;;;;;;;84.50;64.00;;;;;7.25;58.48;102837.97;6247357;22;45318;-84
2022/01/14 21:19:50;;;;;;;;;;;;;;;;;;;;;
2022/01/14 21:22:55;;;;;;;;;88.75;69.50;;;;;7.39;58.57;102869.13;6244254;22;72141;-87
2022/01/14 21:26:10;;;;;;;;;;;;;;;;;;;;;
2022/01/14 21:28:41;;;;;;;;;86.25;71.00;;;;;7.33;58.51;102858.38;6247092;22;71511;-83
2022/01/14 21:32:01;;;;;;;;;91.25;69.50;;;;;7.28;58.65;102855.53;6243897;22;45467;-86
2022/01/14 21:34:44;;;;;;;;;86.75;70.50;;;;;7.22;58.72;102853.56;6240933;22;45732;-87
2022/01/14 21:37:36;;;;;;;;;95.50;77.25;;;;;7.13;58.83;102836.53;6242417;22;47290;-86
2022/01/14 21:40:14;;;;;;;;;;;;;;;;;;;;;
2022/01/14 21:42:47;;;;;;;;;92.50;76.00;;;;;6.92;58.92;102807.66;6244392;22;69482;-84
2022/01/14 21:45:50;;;;;;;;;;;;;;;;;;;;;
2022/01/14 21:48:17;;;;;;;;;89.50;75.75;;;;;6.96;59.15;102826.19;6243168;22;76564;-86
2022/01/14 21:51:16;;;;;;;;;89.75;71.25;;;;;7.03;58.87;102829.97;6245379;22;45274;-87
2022/01/14 21:53:50;;;;;;;;;90.25;73.75;;;;;7.08;58.87;102833.69;6241010;22;45466;-85
2022/01/14 21:56:33;;;;;;;;;92.00;76.75;;;;;6.94;59.09;102808.63;6243793;22;45808;-88
2022/01/14 21:59:55;;;;;;;;;93.33;81.00;;;;;7.03;58.93;102833.50;6243307;22;46055;-86
2022/01/14 22:05:27;;;;;;;;;93.67;83.00;;;;;6.77;59.25;102793.06;6243461;22;45484;-86
2022/01/14 22:15:54;;;;;;;;;;;;;;;;;;;;;
2022/01/14 22:18:42;;;;;;;;;101.67;88.00;;;;;6.85;59.28;102827.44;5982087;23;67606;-87
2022/01/14 22:21:13;;;;;;;;;97.33;88.00;;;;;6.80;59.09;102822.00;6036867;23;45622;-83
2022/01/14 22:24:06;;;;;;;;;;;;;;;;;;;;;
2022/01/14 22:26:36;;;;;;;;;97.67;85.00;;;;;6.72;59.38;102822.50;6243234;22;72914;-83
2022/01/14 22:29:26;;;;;;;;;;;;;;;;;;;;;
2022/01/14 22:32:04;;;;;;;;;103.67;95.33;;;;;6.56;59.67;102795.59;6242346;22;71717;-83
2022/01/14 22:34:46;;;;;;;;;108.00;97.33;;;;;6.73;59.48;102825.16;6244800;22;45393;-84
2022/01/14 22:37:41;;;;;;;;;;;;;;;;;;;;;
2022/01/14 22:40:15;;;;;;;;;98.67;89.00;;;;;6.55;59.84;102812.16;6241756;22;68980;-83
2022/01/14 22:42:57;;;;;;;;;117.00;103.67;;;;;6.53;59.72;102802.44;6243004;22;45690;-83
2022/01/14 22:45:26;;;;;;;;;105.33;96.33;;;;;6.61;59.95;102817.66;6244244;22;46220;-83
2022/01/14 22:47:59;;;;;;;;;103.00;95.00;;;;;6.44;59.92;102783.66;6242421;22;45463;-83
2022/01/14 22:50:31;;;;;;;;;109.67;98.67;;;;;6.57;59.66;102806.97;6244263;22;45410;-84
2022/01/14 22:53:11;;;;;;;;;105.00;94.33;;;;;6.57;59.86;102809.56;6241670;22;45489;-83
2022/01/14 22:55:54;;;;;;;;;108.00;102.00;;;;;6.47;60.40;102795.19;6241437;22;47065;-84
2022/01/14 22:58:33;;;;;;;;;109.33;93.00;;;;;6.36;60.24;102773.78;6268476;22;45334;-83
2022/01/14 23:01:55;;;;;;;;;101.67;91.33;;;;;6.43;60.39;102792.34;6244495;22;45671;-85
2022/01/14 23:05:04;;;;;;;;;102.67;94.33;;;;;6.52;60.46;102803.22;6242250;22;45631;-84
2022/01/14 23:07:55;;;;;;;;;111.67;98.67;;;;;6.35;60.23;102769.34;6245048;22;45719;-83
2022/01/14 23:10:30;;;;;;;;;103.67;94.67;;;;;6.31;60.82;102772.66;6241699;22;45333;-83
2022/01/14 23:13:25;;;;;;;;;111.00;103.33;;;;;6.37;60.34;102788.63;6242016;22;45371;-82
2022/01/14 23:15:59;;;;;;;;;125.33;112.00;;;;;6.19;60.62;102769.47;6243138;22;45446;-82
2022/01/14 23:18:30;;;;;;;;;127.00;114.00;;;;;6.27;60.89;102781.16;6244249;22;45397;-82
2022/01/14 23:21:15;;;;;;;;;120.00;108.67;;;;;6.11;60.91;102757.75;6241393;22;45808;-80
2022/01/14 23:23:53;;;;;;;;;137.67;122.00;;;;;6.06;61.32;102757.53;6266420;22;45841;-83
2022/01/14 23:26:32;;;;;;;;;134.00;124.67;;;;;6.15;61.73;102784.13;6242699;22;45591;-83
2022/01/14 23:29:05;;;;;;;;;141.67;122.33;;;;;6.06;61.49;102761.84;6244136;22;46195;-82
2022/01/14 23:31:51;;;;;;;;;137.00;116.33;;;;;6.06;61.75;102760.13;6243036;22;45335;-82
2022/01/14 23:34:31;;;;;;;;;137.33;123.33;;;;;5.95;61.70;102736.09;6243970;22;45324;-83
2022/01/14 23:37:14;;;;;;;;;131.00;115.33;;;;;6.13;61.84;102771.78;6241007;22;45805;-83
2022/01/14 23:39:55;;;;;;;;;;;;;;;;;;;;;
2022/01/14 23:42:33;;;;;;;;;130.00;112.00;;;;;5.87;61.85;102720.84;6243649;22;72029;-84
2022/01/14 23:47:49;;;;;;;;;121.67;109.00;;;;;5.96;62.18;102742.22;6243827;22;45606;-83
2022/01/14 23:50:47;;;;;;;;;;;;;;;;;;;;;
2022/01/14 23:53:18;;;;;;;;;125.67;111.67;;;;;5.91;62.41;102744.59;6239316;22;74462;-83
2022/01/14 23:55:49;;;;;;;;;119.33;106.33;;;;;5.87;61.83;102733.91;6241324;22;45352;-84
2022/01/14 23:58:35;;;;;;;;;108.33;96.67;;;;;6.04;62.36;102759.19;6241590;22;45580;-83
